sensor_id;sensor_type;location;lat;lon;timestamp;temperature;humidity
75994;DHT22;64680;53.800;9.988;2023-07-20T00:01:46;13.40;90.90
75994;DHT22;64680;53.800;9.988;2023-07-20T00:04:13;13.50;91.50
75994;DHT22;64680;53.800;9.988;2023-07-20T00:06:39;13.50;90.80
75994;DHT22;64680;53.800;9.988;2023-07-20T00:09:07;13.50;91.00
75994;DHT22;64680;53.800;9.988;2023-07-20T00:11:36;13.50;91.60
75994;DHT22;64680;53.800;9.988;2023-07-20T00:14:02;13.50;92.00
75994;DHT22;64680;53.800;9.988;2023-07-20T00:16:28;13.50;92.20
75994;DHT22;64680;53.800;9.988;2023-07-20T00:18:54;13.40;93.00
75994;DHT22;64680;53.800;9.988;2023-07-20T00:21:19;13.50;93.60
75994;DHT22;64680;53.800;9.988;2023-07-20T00:23:45;13.50;94.90
75994;DHT22;64680;53.800;9.988;2023-07-20T00:26:10;13.40;94.90
75994;DHT22;64680;53.800;9.988;2023-07-20T00:28:36;13.40;94.70
75994;DHT22;64680;53.800;9.988;2023-07-20T00:31:02;13.40;97.30
75994;DHT22;64680;53.800;9.988;2023-07-20T00:33:28;13.40;98.10
75994;DHT22;64680;53.800;9.988;2023-07-20T00:35:53;13.40;98.20
75994;DHT22;64680;53.800;9.988;2023-07-20T00:38:19;13.40;97.50
75994;DHT22;64680;53.800;9.988;2023-07-20T00:40:45;13.40;98.00
75994;DHT22;64680;53.800;9.988;2023-07-20T00:43:11;13.40;98.40
75994;DHT22;64680;53.800;9.988;2023-07-20T00:45:38;13.30;98.70
75994;DHT22;64680;53.800;9.988;2023-07-20T00:48:04;13.30;99.80
75994;DHT22;64680;53.800;9.988;2023-07-20T00:50:31;13.40;99.60
75994;DHT22;64680;53.800;9.988;2023-07-20T00:52:57;13.40;99.90
75994;DHT22;64680;53.800;9.988;2023-07-20T00:55:24;13.40;99.90
75994;DHT22;64680;53.800;9.988;2023-07-20T00:57:51;13.40;99.90
75994;DHT22;64680;53.800;9.988;2023-07-20T01:00:17;13.30;99.90
75994;DHT22;64680;53.800;9.988;2023-07-20T01:02:43;13.40;99.90
75994;DHT22;64680;53.800;9.988;2023-07-20T01:05:09;13.40;99.90
75994;DHT22;64680;53.800;9.988;2023-07-20T01:07:46;13.40;99.90
75994;DHT22;64680;53.800;9.988;2023-07-20T01:10:21;13.40;99.90
75994;DHT22;64680;53.800;9.988;2023-07-20T01:12:54;13.40;99.90
75994;DHT22;64680;53.800;9.988;2023-07-20T01:15:20;13.40;99.90
75994;DHT22;64680;53.800;9.988;2023-07-20T01:17:46;13.40;99.90
75994;DHT22;64680;53.800;9.988;2023-07-20T01:20:14;13.40;99.90
75994;DHT22;64680;53.800;9.988;2023-07-20T01:28:26;13.50;99.90
75994;DHT22;64680;53.800;9.988;2023-07-20T01:30:59;13.50;99.90
75994;DHT22;64680;53.800;9.988;2023-07-20T01:33:29;13.40;99.90
75994;DHT22;64680;53.800;9.988;2023-07-20T01:35:58;13.40;99.90
75994;DHT22;64680;53.800;9.988;2023-07-20T01:38:25;13.40;99.90
75994;DHT22;64680;53.800;9.988;2023-07-20T01:40:51;13.40;99.90
75994;DHT22;64680;53.800;9.988;2023-07-20T01:43:17;13.40;99.90
75994;DHT22;64680;53.800;9.988;2023-07-20T01:45:43;13.40;99.90
75994;DHT22;64680;53.800;9.988;2023-07-20T01:48:09;13.50;99.90
75994;DHT22;64680;53.800;9.988;2023-07-20T01:50:35;13.40;99.90
75994;DHT22;64680;53.800;9.988;2023-07-20T01:53:04;13.40;99.90
75994;DHT22;64680;53.800;9.988;2023-07-20T01:55:29;13.40;99.90
75994;DHT22;64680;53.800;9.988;2023-07-20T01:57:55;13.40;99.90
75994;DHT22;64680;53.800;9.988;2023-07-20T02:00:21;13.40;99.90
75994;DHT22;64680;53.800;9.988;2023-07-20T02:02:49;13.40;99.90
75994;DHT22;64680;53.800;9.988;2023-07-20T02:05:15;13.40;99.90
75994;DHT22;64680;53.800;9.988;2023-07-20T02:07:41;13.40;99.90
75994;DHT22;64680;53.800;9.988;2023-07-20T02:10:07;13.40;99.90
75994;DHT22;64680;53.800;9.988;2023-07-20T02:12:32;13.40;99.90
75994;DHT22;64680;53.800;9.988;2023-07-20T02:14:58;13.40;99.90
75994;DHT22;64680;53.800;9.988;2023-07-20T02:17:23;13.40;99.90
75994;DHT22;64680;53.800;9.988;2023-07-20T02:19:56;13.50;99.90
75994;DHT22;64680;53.800;9.988;2023-07-20T02:22:23;13.40;99.90
75994;DHT22;64680;53.800;9.988;2023-07-20T02:24:49;13.40;99.90
75994;DHT22;64680;53.800;9.988;2023-07-20T02:27:15;13.40;99.90
75994;DHT22;64680;53.800;9.988;2023-07-20T02:29:41;13.40;99.90
75994;DHT22;64680;53.800;9.988;2023-07-20T02:32:08;13.40;99.90
75994;DHT22;64680;53.800;9.988;2023-07-20T02:34:35;13.40;99.90
75994;DHT22;64680;53.800;9.988;2023-07-20T02:37:01;13.40;99.90
75994;DHT22;64680;53.800;9.988;2023-07-20T02:39:29;13.40;99.90
75994;DHT22;64680;53.800;9.988;2023-07-20T02:41:56;13.40;99.90
75994;DHT22;64680;53.800;9.988;2023-07-20T02:44:22;13.40;99.90
75994;DHT22;64680;53.800;9.988;2023-07-20T02:46:47;13.40;99.90
75994;DHT22;64680;53.800;9.988;2023-07-20T02:49:15;13.40;99.90
75994;DHT22;64680;53.800;9.988;2023-07-20T02:51:41;13.40;99.90
75994;DHT22;64680;53.800;9.988;2023-07-20T02:54:06;13.40;99.90
75994;DHT22;64680;53.800;9.988;2023-07-20T02:56:32;13.50;99.90
75994;DHT22;64680;53.800;9.988;2023-07-20T02:58:57;13.50;99.90
75994;DHT22;64680;53.800;9.988;2023-07-20T03:01:23;13.50;99.90
75994;DHT22;64680;53.800;9.988;2023-07-20T03:03:49;13.40;99.90
75994;DHT22;64680;53.800;9.988;2023-07-20T03:06:15;13.50;99.90
75994;DHT22;64680;53.800;9.988;2023-07-20T03:08:42;13.40;99.90
75994;DHT22;64680;53.800;9.988;2023-07-20T03:11:16;13.40;99.90
75994;DHT22;64680;53.800;9.988;2023-07-20T03:13:42;13.40;99.90
75994;DHT22;64680;53.800;9.988;2023-07-20T03:16:08;13.40;99.90
75994;DHT22;64680;53.800;9.988;2023-07-20T03:18:39;13.40;99.90
75994;DHT22;64680;53.800;9.988;2023-07-20T03:21:05;13.40;99.90
75994;DHT22;64680;53.800;9.988;2023-07-20T03:23:31;13.40;99.90
75994;DHT22;64680;53.800;9.988;2023-07-20T03:25:57;13.40;99.90
75994;DHT22;64680;53.800;9.988;2023-07-20T03:28:23;13.40;99.90
75994;DHT22;64680;53.800;9.988;2023-07-20T03:30:56;13.30;99.90
75994;DHT22;64680;53.800;9.988;2023-07-20T03:33:31;13.40;99.90
75994;DHT22;64680;53.800;9.988;2023-07-20T03:35:57;13.50;99.90
75994;DHT22;64680;53.800;9.988;2023-07-20T03:38:24;13.40;99.90
75994;DHT22;64680;53.800;9.988;2023-07-20T03:40:55;13.40;99.90
75994;DHT22;64680;53.800;9.988;2023-07-20T03:43:21;13.40;99.90
75994;DHT22;64680;53.800;9.988;2023-07-20T03:45:47;13.40;99.90
75994;DHT22;64680;53.800;9.988;2023-07-20T03:48:18;13.30;99.90
75994;DHT22;64680;53.800;9.988;2023-07-20T03:50:48;13.30;99.90
75994;DHT22;64680;53.800;9.988;2023-07-20T03:53:14;13.30;99.90
75994;DHT22;64680;53.800;9.988;2023-07-20T03:55:41;13.40;99.90
75994;DHT22;64680;53.800;9.988;2023-07-20T03:58:07;13.40;99.90
75994;DHT22;64680;53.800;9.988;2023-07-20T04:00:33;13.30;99.90
75994;DHT22;64680;53.800;9.988;2023-07-20T04:02:59;13.30;99.90
75994;DHT22;64680;53.800;9.988;2023-07-20T04:05:25;13.40;99.90
75994;DHT22;64680;53.800;9.988;2023-07-20T04:07:51;13.40;99.90
75994;DHT22;64680;53.800;9.988;2023-07-20T04:10:18;13.40;99.90
75994;DHT22;64680;53.800;9.988;2023-07-20T04:12:44;13.30;99.90
75994;DHT22;64680;53.800;9.988;2023-07-20T04:15:10;13.40;99.90
75994;DHT22;64680;53.800;9.988;2023-07-20T04:17:36;13.40;99.90
75994;DHT22;64680;53.800;9.988;2023-07-20T04:20:01;13.40;99.90
75994;DHT22;64680;53.800;9.988;2023-07-20T04:22:28;13.30;99.90
75994;DHT22;64680;53.800;9.988;2023-07-20T04:24:54;13.30;99.90
75994;DHT22;64680;53.800;9.988;2023-07-20T04:27:19;13.40;99.90
75994;DHT22;64680;53.800;9.988;2023-07-20T04:29:45;13.40;99.90
75994;DHT22;64680;53.800;9.988;2023-07-20T04:32:11;13.40;99.90
75994;DHT22;64680;53.800;9.988;2023-07-20T04:34:36;13.50;99.90
75994;DHT22;64680;53.800;9.988;2023-07-20T04:37:05;13.50;99.90
75994;DHT22;64680;53.800;9.988;2023-07-20T04:39:31;13.60;99.90
75994;DHT22;64680;53.800;9.988;2023-07-20T04:41:57;13.60;99.90
75994;DHT22;64680;53.800;9.988;2023-07-20T04:44:23;13.60;99.90
75994;DHT22;64680;53.800;9.988;2023-07-20T04:46:48;13.60;99.90
75994;DHT22;64680;53.800;9.988;2023-07-20T04:49:14;13.60;99.90
75994;DHT22;64680;53.800;9.988;2023-07-20T04:51:40;13.70;99.90
75994;DHT22;64680;53.800;9.988;2023-07-20T04:54:06;13.90;99.90
75994;DHT22;64680;53.800;9.988;2023-07-20T04:56:31;14.00;98.20
75994;DHT22;64680;53.800;9.988;2023-07-20T04:58:57;14.30;98.20
75994;DHT22;64680;53.800;9.988;2023-07-20T05:01:23;14.60;96.50
75994;DHT22;64680;53.800;9.988;2023-07-20T05:03:49;15.00;89.30
75994;DHT22;64680;53.800;9.988;2023-07-20T05:06:15;15.40;83.80
75994;DHT22;64680;53.800;9.988;2023-07-20T05:08:41;15.60;77.30
75994;DHT22;64680;53.800;9.988;2023-07-20T05:11:06;15.60;75.40
75994;DHT22;64680;53.800;9.988;2023-07-20T05:13:33;15.50;76.80
75994;DHT22;64680;53.800;9.988;2023-07-20T05:15:59;15.70;76.80
75994;DHT22;64680;53.800;9.988;2023-07-20T05:18:24;15.90;75.70
75994;DHT22;64680;53.800;9.988;2023-07-20T05:20:50;16.10;69.20
75994;DHT22;64680;53.800;9.988;2023-07-20T05:23:19;16.20;69.10
75994;DHT22;64680;53.800;9.988;2023-07-20T05:25:45;16.30;67.90
75994;DHT22;64680;53.800;9.988;2023-07-20T05:28:11;16.50;63.50
75994;DHT22;64680;53.800;9.988;2023-07-20T05:30:37;16.70;58.10
75994;DHT22;64680;53.800;9.988;2023-07-20T05:33:02;16.80;55.30
75994;DHT22;64680;53.800;9.988;2023-07-20T05:35:28;16.80;59.70
75994;DHT22;64680;53.800;9.988;2023-07-20T05:37:54;17.00;54.50
75994;DHT22;64680;53.800;9.988;2023-07-20T05:40:19;16.90;54.20
75994;DHT22;64680;53.800;9.988;2023-07-20T05:45:15;16.20;61.50
75994;DHT22;64680;53.800;9.988;2023-07-20T05:47:41;16.00;64.30
75994;DHT22;64680;53.800;9.988;2023-07-20T05:50:07;15.70;66.90
75994;DHT22;64680;53.800;9.988;2023-07-20T05:52:33;15.70;73.20
75994;DHT22;64680;53.800;9.988;2023-07-20T05:54:59;15.80;72.40
75994;DHT22;64680;53.800;9.988;2023-07-20T05:57:24;16.10;65.90
75994;DHT22;64680;53.800;9.988;2023-07-20T05:59:50;16.20;58.70
75994;DHT22;64680;53.800;9.988;2023-07-20T06:02:16;16.40;57.20
75994;DHT22;64680;53.800;9.988;2023-07-20T06:04:42;16.60;56.80
75994;DHT22;64680;53.800;9.988;2023-07-20T06:07:07;16.80;53.40
75994;DHT22;64680;53.800;9.988;2023-07-20T06:09:33;17.00;51.10
75994;DHT22;64680;53.800;9.988;2023-07-20T06:11:59;17.30;48.40
75994;DHT22;64680;53.800;9.988;2023-07-20T06:14:25;17.50;44.60
75994;DHT22;64680;53.800;9.988;2023-07-20T06:16:51;17.70;33.90
75994;DHT22;64680;53.800;9.988;2023-07-20T06:19:16;17.90;33.60
75994;DHT22;64680;53.800;9.988;2023-07-20T06:21:42;17.90;28.90
75994;DHT22;64680;53.800;9.988;2023-07-20T06:24:08;18.00;24.70
75994;DHT22;64680;53.800;9.988;2023-07-20T06:26:33;18.10;17.30
75994;DHT22;64680;53.800;9.988;2023-07-20T06:29:05;18.10;19.30
75994;DHT22;64680;53.800;9.988;2023-07-20T06:31:32;18.20;19.10
75994;DHT22;64680;53.800;9.988;2023-07-20T06:33:58;18.30;16.30
75994;DHT22;64680;53.800;9.988;2023-07-20T06:36:24;18.40;16.40
75994;DHT22;64680;53.800;9.988;2023-07-20T06:38:51;18.50;12.10
75994;DHT22;64680;53.800;9.988;2023-07-20T06:41:17;18.50;13.20
75994;DHT22;64680;53.800;9.988;2023-07-20T06:43:43;18.60;10.60
75994;DHT22;64680;53.800;9.988;2023-07-20T06:46:09;18.60;1.40
75994;DHT22;64680;53.800;9.988;2023-07-20T06:48:34;18.60;7.90
75994;DHT22;64680;53.800;9.988;2023-07-20T06:51:00;18.60;7.90
75994;DHT22;64680;53.800;9.988;2023-07-20T06:53:25;18.80;6.90
75994;DHT22;64680;53.800;9.988;2023-07-20T06:55:51;18.70;6.40
75994;DHT22;64680;53.800;9.988;2023-07-20T06:58:17;18.50;2.80
75994;DHT22;64680;53.800;9.988;2023-07-20T07:00:43;18.40;7.50
75994;DHT22;64680;53.800;9.988;2023-07-20T07:03:10;18.40;5.40
75994;DHT22;64680;53.800;9.988;2023-07-20T07:05:37;18.30;5.80
75994;DHT22;64680;53.800;9.988;2023-07-20T07:08:04;18.30;5.50
75994;DHT22;64680;53.800;9.988;2023-07-20T07:10:29;18.40;4.50
75994;DHT22;64680;53.800;9.988;2023-07-20T07:12:55;18.30;9.10
75994;DHT22;64680;53.800;9.988;2023-07-20T07:15:21;17.90;6.50
75994;DHT22;64680;53.800;9.988;2023-07-20T07:17:46;17.70;5.40
75994;DHT22;64680;53.800;9.988;2023-07-20T07:20:12;17.00;7.70
75994;DHT22;64680;53.800;9.988;2023-07-20T07:22:37;16.60;16.60
75994;DHT22;64680;53.800;9.988;2023-07-20T07:25:03;16.50;19.70
75994;DHT22;64680;53.800;9.988;2023-07-20T07:27:29;17.00;16.20
75994;DHT22;64680;53.800;9.988;2023-07-20T07:29:54;17.40;7.50
75994;DHT22;64680;53.800;9.988;2023-07-20T07:32:20;17.80;9.70
75994;DHT22;64680;53.800;9.988;2023-07-20T07:34:46;18.10;3.50
75994;DHT22;64680;53.800;9.988;2023-07-20T07:37:13;18.00;1.00
75994;DHT22;64680;53.800;9.988;2023-07-20T07:39:38;18.00;1.30
75994;DHT22;64680;53.800;9.988;2023-07-20T07:42:05;18.10;1.00
75994;DHT22;64680;53.800;9.988;2023-07-20T07:44:30;18.30;1.00
75994;DHT22;64680;53.800;9.988;2023-07-20T07:46:56;18.60;1.00
75994;DHT22;64680;53.800;9.988;2023-07-20T07:49:22;18.90;1.00
75994;DHT22;64680;53.800;9.988;2023-07-20T07:51:47;19.00;1.00
75994;DHT22;64680;53.800;9.988;2023-07-20T07:54:14;18.80;1.00
75994;DHT22;64680;53.800;9.988;2023-07-20T07:56:39;18.30;1.00
75994;DHT22;64680;53.800;9.988;2023-07-20T07:59:06;18.00;1.00
75994;DHT22;64680;53.800;9.988;2023-07-20T08:01:32;18.00;1.00
75994;DHT22;64680;53.800;9.988;2023-07-20T08:03:57;17.90;1.00
75994;DHT22;64680;53.800;9.988;2023-07-20T08:06:23;17.40;15.60
75994;DHT22;64680;53.800;9.988;2023-07-20T08:08:51;16.60;33.10
75994;DHT22;64680;53.800;9.988;2023-07-20T08:11:17;15.60;53.10
75994;DHT22;64680;53.800;9.988;2023-07-20T08:13:43;14.80;75.70
75994;DHT22;64680;53.800;9.988;2023-07-20T08:16:09;14.30;79.80
75994;DHT22;64680;53.800;9.988;2023-07-20T08:18:35;13.90;91.90
75994;DHT22;64680;53.800;9.988;2023-07-20T08:21:00;13.80;95.10
75994;DHT22;64680;53.800;9.988;2023-07-20T08:23:26;13.80;95.80
75994;DHT22;64680;53.800;9.988;2023-07-20T08:25:53;14.20;99.90
75994;DHT22;64680;53.800;9.988;2023-07-20T08:28:19;14.80;99.90
75994;DHT22;64680;53.800;9.988;2023-07-20T08:30:46;15.30;99.30
75994;DHT22;64680;53.800;9.988;2023-07-20T08:33:16;15.90;95.10
75994;DHT22;64680;53.800;9.988;2023-07-20T08:35:43;16.30;94.10
75994;DHT22;64680;53.800;9.988;2023-07-20T08:38:09;16.60;81.70
75994;DHT22;64680;53.800;9.988;2023-07-20T08:40:44;16.90;76.80
75994;DHT22;64680;53.800;9.988;2023-07-20T08:43:11;17.10;72.00
75994;DHT22;64680;53.800;9.988;2023-07-20T08:45:39;17.40;74.80
75994;DHT22;64680;53.800;9.988;2023-07-20T08:48:08;17.80;77.20
75994;DHT22;64680;53.800;9.988;2023-07-20T08:50:35;17.90;53.90
75994;DHT22;64680;53.800;9.988;2023-07-20T08:53:02;17.40;55.10
75994;DHT22;64680;53.800;9.988;2023-07-20T08:55:29;17.20;48.20
75994;DHT22;64680;53.800;9.988;2023-07-20T08:57:58;16.90;46.30
75994;DHT22;64680;53.800;9.988;2023-07-20T09:00:25;16.60;49.10
75994;DHT22;64680;53.800;9.988;2023-07-20T09:02:53;16.50;62.80
75994;DHT22;64680;53.800;9.988;2023-07-20T09:05:20;16.80;63.10
75994;DHT22;64680;53.800;9.988;2023-07-20T09:07:46;17.20;57.00
75994;DHT22;64680;53.800;9.988;2023-07-20T09:10:12;17.70;50.30
75994;DHT22;64680;53.800;9.988;2023-07-20T09:12:38;17.70;49.30
75994;DHT22;64680;53.800;9.988;2023-07-20T09:15:05;17.60;36.40
75994;DHT22;64680;53.800;9.988;2023-07-20T09:17:31;17.20;46.80
75994;DHT22;64680;53.800;9.988;2023-07-20T09:19:57;16.70;48.70
75994;DHT22;64680;53.800;9.988;2023-07-20T09:22:30;16.20;62.20
75994;DHT22;64680;53.800;9.988;2023-07-20T09:24:56;15.90;65.50
75994;DHT22;64680;53.800;9.988;2023-07-20T09:27:34;16.00;69.90
75994;DHT22;64680;53.800;9.988;2023-07-20T09:29:59;16.30;68.30
75994;DHT22;64680;53.800;9.988;2023-07-20T09:32:25;16.60;74.00
75994;DHT22;64680;53.800;9.988;2023-07-20T09:34:51;16.90;83.30
75994;DHT22;64680;53.800;9.988;2023-07-20T09:37:26;17.30;59.90
75994;DHT22;64680;53.800;9.988;2023-07-20T09:39:52;17.50;48.70
75994;DHT22;64680;53.800;9.988;2023-07-20T09:42:19;17.50;43.10
75994;DHT22;64680;53.800;9.988;2023-07-20T09:44:46;17.50;40.70
75994;DHT22;64680;53.800;9.988;2023-07-20T09:47:12;17.80;34.00
75994;DHT22;64680;53.800;9.988;2023-07-20T09:49:41;18.00;34.90
75994;DHT22;64680;53.800;9.988;2023-07-20T09:52:08;18.10;31.60
75994;DHT22;64680;53.800;9.988;2023-07-20T09:54:35;17.90;19.00
75994;DHT22;64680;53.800;9.988;2023-07-20T09:57:03;17.40;28.70
75994;DHT22;64680;53.800;9.988;2023-07-20T09:59:29;17.10;35.30
75994;DHT22;64680;53.800;9.988;2023-07-20T10:01:58;16.80;33.50
75994;DHT22;64680;53.800;9.988;2023-07-20T10:04:25;16.60;33.00
75994;DHT22;64680;53.800;9.988;2023-07-20T10:06:54;16.30;34.00
75994;DHT22;64680;53.800;9.988;2023-07-20T10:09:22;16.10;45.30
75994;DHT22;64680;53.800;9.988;2023-07-20T10:11:50;16.00;52.30
75994;DHT22;64680;53.800;9.988;2023-07-20T10:14:19;16.20;62.80
75994;DHT22;64680;53.800;9.988;2023-07-20T10:16:55;16.70;53.40
75994;DHT22;64680;53.800;9.988;2023-07-20T10:19:26;17.00;54.30
75994;DHT22;64680;53.800;9.988;2023-07-20T10:22:03;17.50;56.80
75994;DHT22;64680;53.800;9.988;2023-07-20T10:24:33;17.80;41.70
75994;DHT22;64680;53.800;9.988;2023-07-20T10:27:00;18.20;39.70
75994;DHT22;64680;53.800;9.988;2023-07-20T10:29:26;18.60;36.90
75994;DHT22;64680;53.800;9.988;2023-07-20T10:31:54;18.80;29.60
75994;DHT22;64680;53.800;9.988;2023-07-20T10:34:21;18.50;22.40
75994;DHT22;64680;53.800;9.988;2023-07-20T10:36:48;17.60;30.00
75994;DHT22;64680;53.800;9.988;2023-07-20T10:39:27;17.10;38.70
75994;DHT22;64680;53.800;9.988;2023-07-20T10:42:09;16.80;47.60
75994;DHT22;64680;53.800;9.988;2023-07-20T10:44:41;16.70;50.80
75994;DHT22;64680;53.800;9.988;2023-07-20T10:47:12;16.90;45.40
75994;DHT22;64680;53.800;9.988;2023-07-20T10:50:00;17.40;55.50
75994;DHT22;64680;53.800;9.988;2023-07-20T10:52:26;17.80;42.00
75994;DHT22;64680;53.800;9.988;2023-07-20T10:54:51;18.20;29.90
75994;DHT22;64680;53.800;9.988;2023-07-20T10:57:30;18.50;26.70
75994;DHT22;64680;53.800;9.988;2023-07-20T11:00:29;18.90;18.80
75994;DHT22;64680;53.800;9.988;2023-07-20T11:02:58;19.10;27.90
75994;DHT22;64680;53.800;9.988;2023-07-20T11:05:36;19.30;19.30
75994;DHT22;64680;53.800;9.988;2023-07-20T11:08:09;19.70;8.00
75994;DHT22;64680;53.800;9.988;2023-07-20T11:10:35;19.80;1.00
75994;DHT22;64680;53.800;9.988;2023-07-20T11:13:23;19.00;1.00
75994;DHT22;64680;53.800;9.988;2023-07-20T11:18:28;17.50;24.70
75994;DHT22;64680;53.800;9.988;2023-07-20T11:20:54;17.00;29.20
75994;DHT22;64680;53.800;9.988;2023-07-20T11:23:20;16.80;32.80
75994;DHT22;64680;53.800;9.988;2023-07-20T11:25:45;16.40;35.20
75994;DHT22;64680;53.800;9.988;2023-07-20T11:28:11;16.10;39.90
75994;DHT22;64680;53.800;9.988;2023-07-20T11:30:38;16.00;48.40
75994;DHT22;64680;53.800;9.988;2023-07-20T11:33:10;15.70;49.00
75994;DHT22;64680;53.800;9.988;2023-07-20T11:35:42;15.80;55.40
75994;DHT22;64680;53.800;9.988;2023-07-20T11:38:08;15.90;55.00
75994;DHT22;64680;53.800;9.988;2023-07-20T11:40:34;16.00;51.50
75994;DHT22;64680;53.800;9.988;2023-07-20T11:42:59;16.10;54.20
75994;DHT22;64680;53.800;9.988;2023-07-20T11:45:25;16.10;54.60
75994;DHT22;64680;53.800;9.988;2023-07-20T11:47:52;16.30;60.20
75994;DHT22;64680;53.800;9.988;2023-07-20T11:50:18;16.30;57.90
75994;DHT22;64680;53.800;9.988;2023-07-20T11:52:44;16.30;57.00
75994;DHT22;64680;53.800;9.988;2023-07-20T11:55:10;16.30;45.80
75994;DHT22;64680;53.800;9.988;2023-07-20T11:57:36;16.30;49.60
75994;DHT22;64680;53.800;9.988;2023-07-20T12:00:04;16.40;42.80
75994;DHT22;64680;53.800;9.988;2023-07-20T12:02:34;16.50;46.40
75994;DHT22;64680;53.800;9.988;2023-07-20T12:05:02;16.80;46.10
75994;DHT22;64680;53.800;9.988;2023-07-20T12:07:28;16.90;38.20
75994;DHT22;64680;53.800;9.988;2023-07-20T12:10:11;17.00;37.70
75994;DHT22;64680;53.800;9.988;2023-07-20T12:12:42;17.20;39.50
75994;DHT22;64680;53.800;9.988;2023-07-20T12:15:17;17.50;36.80
75994;DHT22;64680;53.800;9.988;2023-07-20T12:17:45;17.70;28.00
75994;DHT22;64680;53.800;9.988;2023-07-20T12:20:11;17.80;34.10
75994;DHT22;64680;53.800;9.988;2023-07-20T12:22:41;18.10;31.10
75994;DHT22;64680;53.800;9.988;2023-07-20T12:25:08;18.30;20.00
75994;DHT22;64680;53.800;9.988;2023-07-20T12:27:37;18.70;15.10
75994;DHT22;64680;53.800;9.988;2023-07-20T12:30:07;18.80;1.50
75994;DHT22;64680;53.800;9.988;2023-07-20T12:32:33;18.80;1.00
75994;DHT22;64680;53.800;9.988;2023-07-20T12:34:59;18.50;1.00
75994;DHT22;64680;53.800;9.988;2023-07-20T12:37:26;18.60;1.00
75994;DHT22;64680;53.800;9.988;2023-07-20T12:39:52;18.80;1.00
75994;DHT22;64680;53.800;9.988;2023-07-20T12:42:17;19.00;1.00
75994;DHT22;64680;53.800;9.988;2023-07-20T12:44:43;19.10;1.00
75994;DHT22;64680;53.800;9.988;2023-07-20T12:47:09;19.40;1.00
75994;DHT22;64680;53.800;9.988;2023-07-20T12:49:34;19.30;1.00
75994;DHT22;64680;53.800;9.988;2023-07-20T12:52:00;19.10;1.00
75994;DHT22;64680;53.800;9.988;2023-07-20T12:54:26;19.10;1.00
75994;DHT22;64680;53.800;9.988;2023-07-20T12:56:51;18.80;1.00
75994;DHT22;64680;53.800;9.988;2023-07-20T12:59:17;18.10;1.00
75994;DHT22;64680;53.800;9.988;2023-07-20T13:01:42;17.70;5.50
75994;DHT22;64680;53.800;9.988;2023-07-20T13:04:09;17.00;22.70
75994;DHT22;64680;53.800;9.988;2023-07-20T13:06:35;16.80;33.70
75994;DHT22;64680;53.800;9.988;2023-07-20T13:09:02;16.90;39.50
75994;DHT22;64680;53.800;9.988;2023-07-20T13:11:28;16.90;38.30
75994;DHT22;64680;53.800;9.988;2023-07-20T13:13:54;16.90;35.00
75994;DHT22;64680;53.800;9.988;2023-07-20T13:16:19;17.20;35.10
75994;DHT22;64680;53.800;9.988;2023-07-20T13:18:45;17.50;32.00
75994;DHT22;64680;53.800;9.988;2023-07-20T13:21:10;17.50;39.10
75994;DHT22;64680;53.800;9.988;2023-07-20T13:23:37;17.60;26.30
75994;DHT22;64680;53.800;9.988;2023-07-20T13:26:04;17.60;22.40
75994;DHT22;64680;53.800;9.988;2023-07-20T13:28:30;17.60;35.90
75994;DHT22;64680;53.800;9.988;2023-07-20T13:30:56;17.70;24.10
75994;DHT22;64680;53.800;9.988;2023-07-20T13:33:21;17.60;26.40
75994;DHT22;64680;53.800;9.988;2023-07-20T13:35:47;17.60;23.00
75994;DHT22;64680;53.800;9.988;2023-07-20T13:38:13;17.70;25.50
75994;DHT22;64680;53.800;9.988;2023-07-20T13:40:38;17.70;15.90
75994;DHT22;64680;53.800;9.988;2023-07-20T13:43:04;17.60;18.40
75994;DHT22;64680;53.800;9.988;2023-07-20T13:45:29;17.50;10.50
75994;DHT22;64680;53.800;9.988;2023-07-20T13:47:55;17.40;8.40
75994;DHT22;64680;53.800;9.988;2023-07-20T13:50:20;17.30;9.70
75994;DHT22;64680;53.800;9.988;2023-07-20T13:52:46;17.30;5.00
75994;DHT22;64680;53.800;9.988;2023-07-20T13:55:12;17.20;5.50
75994;DHT22;64680;53.800;9.988;2023-07-20T13:57:38;17.10;4.00
75994;DHT22;64680;53.800;9.988;2023-07-20T14:00:04;17.20;6.00
75994;DHT22;64680;53.800;9.988;2023-07-20T14:02:33;17.30;7.40
75994;DHT22;64680;53.800;9.988;2023-07-20T14:04:59;17.80;3.50
75994;DHT22;64680;53.800;9.988;2023-07-20T14:07:25;18.30;1.00
75994;DHT22;64680;53.800;9.988;2023-07-20T14:09:50;18.60;1.00
75994;DHT22;64680;53.800;9.988;2023-07-20T14:12:16;18.80;1.00
75994;DHT22;64680;53.800;9.988;2023-07-20T14:14:41;18.90;1.00
75994;DHT22;64680;53.800;9.988;2023-07-20T14:17:07;18.70;1.00
75994;DHT22;64680;53.800;9.988;2023-07-20T14:19:33;18.60;1.00
75994;DHT22;64680;53.800;9.988;2023-07-20T14:22:01;18.80;1.00
75994;DHT22;64680;53.800;9.988;2023-07-20T14:24:29;19.00;1.00
75994;DHT22;64680;53.800;9.988;2023-07-20T14:26:54;19.10;1.00
75994;DHT22;64680;53.800;9.988;2023-07-20T14:29:20;18.80;1.00
75994;DHT22;64680;53.800;9.988;2023-07-20T14:31:46;18.70;1.00
75994;DHT22;64680;53.800;9.988;2023-07-20T14:34:16;18.60;1.00
75994;DHT22;64680;53.800;9.988;2023-07-20T14:36:44;18.60;1.00
75994;DHT22;64680;53.800;9.988;2023-07-20T14:39:09;18.50;1.00
75994;DHT22;64680;53.800;9.988;2023-07-20T14:41:35;18.20;1.00
75994;DHT22;64680;53.800;9.988;2023-07-20T14:44:00;18.10;1.00
75994;DHT22;64680;53.800;9.988;2023-07-20T14:46:27;18.20;1.00
75994;DHT22;64680;53.800;9.988;2023-07-20T14:48:53;18.40;1.00
75994;DHT22;64680;53.800;9.988;2023-07-20T14:51:18;18.50;1.00
75994;DHT22;64680;53.800;9.988;2023-07-20T14:53:44;18.60;1.00
75994;DHT22;64680;53.800;9.988;2023-07-20T14:56:10;18.80;1.00
75994;DHT22;64680;53.800;9.988;2023-07-20T14:58:36;18.90;1.00
75994;DHT22;64680;53.800;9.988;2023-07-20T15:01:02;18.90;1.00
75994;DHT22;64680;53.800;9.988;2023-07-20T15:03:27;19.10;1.00
75994;DHT22;64680;53.800;9.988;2023-07-20T15:05:53;19.30;1.00
75994;DHT22;64680;53.800;9.988;2023-07-20T15:08:19;19.30;1.00
75994;DHT22;64680;53.800;9.988;2023-07-20T15:10:45;19.30;1.00
75994;DHT22;64680;53.800;9.988;2023-07-20T15:13:12;19.20;1.00
75994;DHT22;64680;53.800;9.988;2023-07-20T15:15:38;19.20;1.00
75994;DHT22;64680;53.800;9.988;2023-07-20T15:18:03;19.30;1.00
75994;DHT22;64680;53.800;9.988;2023-07-20T15:20:29;19.40;1.00
75994;DHT22;64680;53.800;9.988;2023-07-20T15:22:57;19.40;1.00
75994;DHT22;64680;53.800;9.988;2023-07-20T15:25:22;19.30;1.00
75994;DHT22;64680;53.800;9.988;2023-07-20T15:27:48;19.20;1.00
75994;DHT22;64680;53.800;9.988;2023-07-20T15:30:14;19.20;1.00
75994;DHT22;64680;53.800;9.988;2023-07-20T15:32:40;19.30;1.00
75994;DHT22;64680;53.800;9.988;2023-07-20T15:35:09;19.30;1.00
75994;DHT22;64680;53.800;9.988;2023-07-20T15:37:35;19.30;1.00
75994;DHT22;64680;53.800;9.988;2023-07-20T15:40:02;19.30;1.00
75994;DHT22;64680;53.800;9.988;2023-07-20T15:42:31;19.30;1.00
75994;DHT22;64680;53.800;9.988;2023-07-20T15:44:57;19.20;1.00